Time;durP1;ratioP1;P1;durP2;ratioP2;P2;SDS_P1;SDS_P2;PMS_P1;PMS_P2;Temp;Humidity;BMP_temperature;BMP_pressure;BME280_temperature;BME280_humidity;BME280_pressure;Samples;Min_cycle;Max_cycle;Signal;HPM_P1;HPM_P2
2023/08/16 00:03:19;;;;;;;14.70;12.40;;;;;;;21.59;65.13;98851.11;435415;1250;98841;-41
2023/08/16 00:23:33;;;;;;;18.70;14.40;;;;;;;21.35;66.05;98847.86;435365;1250;99221;-41
2023/08/16 00:33:40;;;;;;;17.80;14.90;;;;;;;21.07;66.39;98845.37;435217;1255;285351;-41
2023/08/16 00:43:46;;;;;;;18.30;14.00;;;;;;;20.84;66.75;98848.89;435263;1253;108429;-41
2023/08/16 00:53:53;;;;;;;16.80;13.30;;;;;;;20.66;67.06;98862.55;435331;1250;99227;-45
2023/08/16 01:04:00;;;;;;;15.70;13.10;;;;;;;20.67;67.59;98864.83;435130;1254;108546;-42
2023/08/16 01:24:19;;;;;;;16.80;15.10;;;;;;;20.71;68.13;98855.80;435310;1250;110959;-41
2023/08/16 01:34:26;;;;;;;18.00;14.20;;;;;;;20.67;68.28;98861.45;435212;1250;108219;-42
2023/08/16 01:54:41;;;;;;;19.20;14.80;;;;;;;20.69;68.54;98863.30;436884;1252;107858;-41
2023/08/16 02:14:55;;;;;;;23.00;13.70;;;;;;;20.37;69.19;98869.28;436308;1247;111975;-41
2023/08/16 02:25:01;;;;;;;15.90;14.20;;;;;;;20.37;69.54;98862.58;436320;1253;108244;-41
2023/08/16 02:45:15;;;;;;;20.70;14.50;;;;;;;20.31;69.78;98859.95;436462;1252;108807;-41
2023/08/16 02:55:22;;;;;;;19.50;13.70;;;;;;;20.20;70.03;98862.27;436133;1250;99250;-42
2023/08/16 03:05:30;;;;;;;19.90;14.90;;;;;;;20.11;70.37;98864.27;436458;1253;112949;-41
2023/08/16 03:15:38;;;;;;;20.80;16.80;;;;;;;20.00;70.60;98867.44;436308;1253;108441;-42
2023/08/16 03:25:46;;;;;;;17.80;14.80;;;;;;;19.88;71.15;98865.06;436308;1247;99224;-43
2023/08/16 03:35:53;;;;;;;18.20;14.50;;;;;;;19.93;71.28;98857.71;436227;1253;108491;-42
2023/08/16 03:46:00;;;;;;;19.30;15.00;;;;;;;20.06;71.37;98858.84;436379;1247;99246;-42
2023/08/16 03:56:06;;;;;;;23.10;16.00;;;;;;;19.88;71.51;98870.09;436354;1248;111445;-43
2023/08/16 04:06:13;;;;;;;18.50;15.80;;;;;;;19.95;71.80;98874.76;436339;1262;107433;-40
2023/08/16 04:16:20;;;;;;;19.40;15.20;;;;;;;20.07;71.74;98882.23;436340;1247;97991;-44
2023/08/16 04:26:28;;;;;;;19.90;16.90;;;;;;;20.33;72.11;98890.10;436194;1247;109478;-43
2023/08/16 04:36:35;;;;;;;19.10;16.20;;;;;;;20.71;72.19;98896.95;436548;1250;99208;-43
2023/08/16 04:46:42;;;;;;;18.90;15.40;;;;;;;21.81;71.98;98900.92;436493;1253;111189;-43
2023/08/16 05:06:58;;;;;;;17.00;15.00;;;;;;;23.39;70.30;98901.82;436386;1252;99327;-44
2023/08/16 05:17:04;;;;;;;17.60;14.80;;;;;;;24.50;69.46;98909.22;436270;1253;107499;-42
2023/08/16 05:37:19;;;;;;;17.10;11.70;;;;;;;26.08;67.29;98908.70;436413;1253;111897;-42
2023/08/16 05:57:32;;;;;;;16.30;11.00;;;;;;;27.81;64.75;98911.20;436379;1253;99209;-42
2023/08/16 06:17:46;;;;;;;12.80;9.60;;;;;;;28.87;61.19;98920.13;436194;1257;99215;-41
2023/08/16 06:27:54;;;;;;;11.70;9.90;;;;;;;29.34;59.21;98924.50;436263;1253;112935;-42
2023/08/16 06:48:08;;;;;;;14.70;8.00;;;;;;;30.54;56.70;98918.73;436436;1253;99253;-44
2023/08/16 06:58:16;;;;;;;11.10;7.90;;;;;;;31.09;55.28;98914.41;436388;1254;100105;-42
2023/08/16 07:08:22;;;;;;;14.70;8.40;;;;;;;31.49;53.96;98918.04;436580;1250;98531;-43
2023/08/16 07:28:36;;;;;;;22.10;8.90;;;;;;;32.31;52.42;98917.70;436410;1252;99660;-43
2023/08/16 07:38:43;;;;;;;12.00;7.70;;;;;;;32.64;51.34;98916.89;436436;1247;99218;-42
2023/08/16 07:48:50;;;;;;;10.00;8.20;;;;;;;33.10;50.49;98922.07;436395;1253;99250;-43
2023/08/16 07:58:58;;;;;;;15.10;8.80;;;;;;;33.20;49.62;98928.38;436335;1252;97977;-45
2023/08/16 08:09:06;;;;;;;14.50;7.70;;;;;;;33.10;48.68;98930.92;436468;1252;112923;-43
2023/08/16 08:19:12;;;;;;;10.30;7.00;;;;;;;33.46;48.06;98927.99;436378;1253;100151;-44
2023/08/16 08:29:20;;;;;;;10.10;7.00;;;;;;;33.52;47.32;98926.90;436460;1248;98548;-43
2023/08/16 08:39:28;;;;;;;7.70;5.60;;;;;;;33.86;47.03;98925.22;436337;1253;110273;-43
2023/08/16 08:59:45;;;;;;;5.70;5.20;;;;;;;33.94;44.53;98937.54;436459;1247;104356;-44
2023/08/16 09:09:55;;;;;;;9.40;6.00;;;;;;;34.03;43.80;98941.84;436422;1253;99171;-44
2023/08/16 09:30:26;;;;;;;7.30;6.70;;;;;;;33.89;42.70;98949.31;436258;1253;100468;-44
2023/08/16 09:40:31;;;;;;;9.50;6.10;;;;;;;33.96;42.46;98940.99;436463;1250;99212;-43
2023/08/16 10:00:59;;;;;;;7.60;6.90;;;;;;;34.20;42.36;98936.59;436334;1252;99272;-43
2023/08/16 10:11:23;;;;;;;8.70;6.00;;;;;;;34.26;42.09;98934.27;436567;1254;99225;-45
2023/08/16 10:31:44;;;;;;;6.20;5.70;;;;;;;34.17;40.46;98937.97;436329;1253;97993;-46
2023/08/16 10:41:50;;;;;;;11.50;6.70;;;;;;;33.87;39.91;98942.27;436235;1254;111705;-42
2023/08/16 10:52:02;;;;;;;9.90;6.30;;;;;;;33.86;40.02;98930.87;436285;1254;100084;-45
2023/08/16 11:22:36;;;;;;;9.40;6.70;;;;;;;34.31;40.58;98900.52;435562;1251;99317;-45
2023/08/16 11:42:54;;;;;;;9.10;7.70;;;;;;;34.53;39.43;98911.61;435391;1263;99266;-43
2023/08/16 11:53:05;;;;;;;14.20;6.80;;;;;;;34.26;38.85;98904.95;435456;1253;99211;-42
2023/08/16 12:23:30;;;;;;;10.00;7.30;;;;;;;34.06;38.29;98875.94;435217;1263;103002;-42
2023/08/16 12:33:36;;;;;;;8.80;7.30;;;;;;;34.13;37.46;98870.44;434651;1263;507728;-44
2023/08/16 12:43:44;;;;;;;9.90;6.80;;;;;;;34.16;37.73;98864.03;435225;1253;99242;-43
2023/08/16 12:53:51;;;;;;;9.10;7.10;;;;;;;34.42;37.62;98861.23;435451;1263;99399;-43
2023/08/16 13:14:05;;;;;;;8.10;7.30;;;;;;;34.16;38.36;98853.91;435326;1254;103522;-41
2023/08/16 13:24:14;;;;;;;9.50;7.20;;;;;;;33.73;38.11;98843.61;435338;1263;100929;-43
2023/08/16 13:34:41;;;;;;;8.70;7.40;;;;;;;33.43;38.30;98844.25;435461;1251;97982;-44
2023/08/16 13:45:06;;;;;;;8.80;7.90;;;;;;;33.20;38.39;98842.50;435436;1254;100032;-42
2023/08/16 13:55:17;;;;;;;8.30;7.20;;;;;;;33.05;38.80;98834.80;435383;1250;99194;-43
2023/08/16 14:05:24;;;;;;;7.90;5.90;;;;;;;33.10;38.77;98828.77;435351;1255;104509;-43
2023/08/16 14:35:42;;;;;;;7.00;5.90;;;;;;;32.85;38.44;98836.52;435311;1263;99783;-43
2023/08/16 14:45:49;;;;;;;11.30;5.80;;;;;;;32.64;37.78;98836.55;435179;1253;98331;-41
2023/08/16 14:55:56;;;;;;;7.10;4.90;;;;;;;32.37;37.26;98832.58;435428;1254;104248;-42
2023/08/16 15:16:09;;;;;;;5.60;5.10;;;;;;;32.16;37.02;98826.32;435399;1251;99241;-43
2023/08/16 15:26:15;;;;;;;5.60;4.90;;;;;;;31.99;36.86;98814.25;435235;1263;108608;-42
2023/08/16 15:36:26;;;;;;;6.90;5.30;;;;;;;31.95;36.97;98800.83;435299;1254;99323;-43
2023/08/16 15:46:34;;;;;;;6.10;5.60;;;;;;;32.03;37.23;98786.50;435384;1254;103658;-42
2023/08/16 15:56:41;;;;;;;6.30;5.20;;;;;;;32.02;37.20;98787.58;435223;1254;99866;-43
2023/08/16 16:06:52;;;;;;;7.70;5.30;;;;;;;31.79;37.27;98790.42;435252;1251;99301;-42
2023/08/16 16:17:23;;;;;;;6.80;6.20;;;;;;;31.47;37.27;98803.23;435173;1257;107518;-43
2023/08/16 16:27:30;;;;;;;6.20;5.70;;;;;;;31.16;38.67;98810.52;435229;1251;97941;-42
2023/08/16 16:37:36;;;;;;;10.10;7.30;;;;;;;30.69;40.69;98817.39;435343;1251;112150;-43
2023/08/16 16:47:43;;;;;;;11.00;6.50;;;;;;;30.41;42.07;98817.62;435212;1264;108368;-43
2023/08/16 16:57:51;;;;;;;10.80;7.30;;;;;;;30.10;43.57;98810.82;435389;1251;99027;-42
2023/08/16 17:18:04;;;;;;;20.10;8.40;;;;;;;29.40;45.77;98811.04;435339;1251;99365;-42
2023/08/16 17:28:12;;;;;;;16.30;8.70;;;;;;;29.21;46.64;98813.14;435340;1253;111423;-42
2023/08/16 17:38:19;;;;;;;14.70;9.10;;;;;;;28.91;47.63;98808.66;435360;1253;106790;-42
2023/08/16 17:48:25;;;;;;;12.20;9.10;;;;;;;28.45;48.45;98818.20;435244;1254;99992;-42
2023/08/16 17:58:31;;;;;;;13.80;8.90;;;;;;;28.13;49.72;98825.27;435474;1250;109122;-42
2023/08/16 18:08:38;;;;;;;16.10;11.40;;;;;;;27.91;50.63;98840.11;435184;1257;99215;-42
2023/08/16 18:18:46;;;;;;;13.10;11.80;;;;;;;27.45;51.30;98855.63;435344;1253;111327;-43
2023/08/16 18:28:54;;;;;;;13.30;11.40;;;;;;;27.15;52.02;98872.85;435223;1253;107404;-42
2023/08/16 18:39:02;;;;;;;103.00;16.70;;;;;;;26.99;52.48;98876.61;435463;1250;99172;-41
2023/08/16 18:49:12;;;;;;;24.50;11.40;;;;;;;26.77;53.28;98881.45;435282;1254;108626;-41
2023/08/16 18:59:20;;;;;;;18.40;12.80;;;;;;;26.58;54.29;98887.08;435427;1251;99242;-41
2023/08/16 19:09:31;;;;;;;19.80;13.60;;;;;;;26.33;55.33;98879.65;435291;1254;112779;-42
2023/08/16 19:19:39;;;;;;;16.90;12.60;;;;;;;26.13;56.14;98889.92;435294;1253;108342;-44
2023/08/16 19:29:47;;;;;;;25.40;14.80;;;;;;;26.11;56.95;98910.05;435538;1250;99711;-42
2023/08/16 19:39:52;;;;;;;27.30;15.30;;;;;;;26.02;57.37;98909.67;435400;1253;107427;-41
2023/08/16 19:49:57;;;;;;;16.90;11.90;;;;;;;26.03;57.49;98904.83;435262;1253;99208;-42
2023/08/16 20:00:04;;;;;;;18.80;12.80;;;;;;;26.11;57.70;98901.20;435313;1251;110369;-43
2023/08/16 20:10:12;;;;;;;18.70;12.80;;;;;;;26.17;57.63;98891.02;435211;1251;108634;-41
2023/08/16 20:20:20;;;;;;;13.90;11.90;;;;;;;26.13;57.73;98887.13;435450;1251;98816;-44
2023/08/16 20:30:27;;;;;;;13.40;11.90;;;;;;;25.96;58.09;98875.52;435467;1250;108383;-42
2023/08/16 20:40:36;;;;;;;17.20;12.20;;;;;;;25.83;58.37;98873.29;435443;1251;99343;-42
2023/08/16 20:50:42;;;;;;;13.60;12.20;;;;;;;25.65;58.83;98862.48;435468;1250;111451;-43
2023/08/16 21:10:54;;;;;;;17.10;14.20;;;;;;;25.19;60.01;98851.52;435420;1250;99113;-44
2023/08/16 21:21:00;;;;;;;;;;;;;;;24.92;60.68;98844.60;435380;1253;108152;-41
2023/08/16 21:31:08;;;;;;;18.80;14.00;;;;;;;24.74;61.35;98839.17;435304;1249;99337;-42
2023/08/16 21:51:26;;;;;;;17.20;14.20;;;;;;;24.61;62.63;98851.80;435570;1253;107957;-42
2023/08/16 22:01:33;;;;;;;18.50;13.60;;;;;;;24.50;62.59;98859.42;435443;1249;98010;-43
2023/08/16 22:11:39;;;;;;;20.40;12.70;;;;;;;24.40;62.97;98851.94;435299;1253;107977;-43
2023/08/16 22:21:47;;;;;;;16.70;11.10;;;;;;;24.34;63.31;98842.73;435325;1250;98034;-42
2023/08/16 22:31:54;;;;;;;14.80;12.00;;;;;;;24.28;62.98;98835.77;435290;1254;112021;-42
2023/08/16 22:42:00;;;;;;;12.50;11.10;;;;;;;24.37;62.58;98830.39;435403;1264;107938;-44
2023/08/16 23:22:25;;;;;;;11.60;10.40;;;;;;;24.18;62.79;98828.38;435304;1253;111896;-43
2023/08/16 23:32:32;;;;;;;16.00;12.40;;;;;;;24.24;62.60;98826.88;435301;1250;108010;-42
2023/08/16 23:42:40;;;;;;;20.60;12.40;;;;;;;24.05;62.88;98830.19;435434;1251;99240;-42
2023/08/16 23:52:46;;;;;;;14.30;11.70;;;;;;;23.96;63.26;98837.69;435345;1252;107355;-41
